Royal, Tennessee
Current Conditions -  °F | °C
As of 1:15 PM on Thursday 27 Nov 2014 (Local Time) from KSYI Reporting Station
Overcast Overcast  
Wind Chill: 29°   Ceiling: 3100
Heat Index: 37°   Visibility: 10mi
Dew Point: 28°   Wind: 13mph
Humidity: 70%   Direction: 340°NNW
Pressure: 30.39"   Gusts: NA
Location:  35.4645°N, 86.4889°W
Report Text: KSYI 271915Z AUTO 34011KT 10SM BKN031 OVC036 03/M02 A3039 RMK
Loading
Personal Weather Stations






























Interactive Weather Map New forecast layout! Learn more

10-Day Weather Forecast

Advertisements
Track Severe Weather on mobile